sensor_id;sensor_type;location;lat;lon;timestamp;P1;durP1;ratioP1;P2;durP2;ratioP2
15677;SDS011;7939;50.814;6.368;2023-08-24T00:01:41;3.08;;;2.40;;
15677;SDS011;7939;50.814;6.368;2023-08-24T00:04:08;2.95;;;2.65;;
15677;SDS011;7939;50.814;6.368;2023-08-24T00:06:35;4.80;;;2.60;;
15677;SDS011;7939;50.814;6.368;2023-08-24T00:09:03;3.75;;;2.45;;
15677;SDS011;7939;50.814;6.368;2023-08-24T00:11:30;2.83;;;2.30;;
15677;SDS011;7939;50.814;6.368;2023-08-24T00:13:58;4.93;;;1.90;;
15677;SDS011;7939;50.814;6.368;2023-08-24T00:16:25;2.85;;;2.20;;
15677;SDS011;7939;50.814;6.368;2023-08-24T00:18:51;1.90;;;1.80;;
15677;SDS011;7939;50.814;6.368;2023-08-24T00:21:18;5.22;;;2.20;;
15677;SDS011;7939;50.814;6.368;2023-08-24T00:23:48;4.10;;;1.95;;
15677;SDS011;7939;50.814;6.368;2023-08-24T00:26:14;3.72;;;2.50;;
15677;SDS011;7939;50.814;6.368;2023-08-24T00:28:42;2.67;;;2.22;;
15677;SDS011;7939;50.814;6.368;2023-08-24T00:31:10;2.45;;;2.13;;
15677;SDS011;7939;50.814;6.368;2023-08-24T00:33:36;5.15;;;2.40;;
15677;SDS011;7939;50.814;6.368;2023-08-24T00:36:05;3.45;;;2.40;;
15677;SDS011;7939;50.814;6.368;2023-08-24T00:38:32;3.67;;;2.10;;
15677;SDS011;7939;50.814;6.368;2023-08-24T00:40:58;4.18;;;2.10;;
15677;SDS011;7939;50.814;6.368;2023-08-24T00:43:26;3.00;;;2.42;;
15677;SDS011;7939;50.814;6.368;2023-08-24T00:45:53;3.97;;;2.45;;
15677;SDS011;7939;50.814;6.368;2023-08-24T00:48:22;4.30;;;2.63;;
15677;SDS011;7939;50.814;6.368;2023-08-24T00:50:51;2.58;;;2.22;;
15677;SDS011;7939;50.814;6.368;2023-08-24T00:53:18;7.53;;;3.20;;
15677;SDS011;7939;50.814;6.368;2023-08-24T00:55:46;4.75;;;2.53;;
15677;SDS011;7939;50.814;6.368;2023-08-24T00:58:13;4.82;;;2.03;;
15677;SDS011;7939;50.814;6.368;2023-08-24T01:00:40;2.33;;;2.10;;
15677;SDS011;7939;50.814;6.368;2023-08-24T01:03:07;2.92;;;2.30;;
15677;SDS011;7939;50.814;6.368;2023-08-24T01:05:35;4.13;;;2.10;;
15677;SDS011;7939;50.814;6.368;2023-08-24T01:08:02;3.03;;;1.92;;
15677;SDS011;7939;50.814;6.368;2023-08-24T01:10:30;4.45;;;2.45;;
15677;SDS011;7939;50.814;6.368;2023-08-24T01:13:07;2.30;;;2.10;;
15677;SDS011;7939;50.814;6.368;2023-08-24T01:15:37;5.45;;;2.28;;
15677;SDS011;7939;50.814;6.368;2023-08-24T01:18:10;3.75;;;2.28;;
15677;SDS011;7939;50.814;6.368;2023-08-24T01:20:41;3.15;;;2.10;;
15677;SDS011;7939;50.814;6.368;2023-08-24T01:23:14;4.25;;;2.78;;
15677;SDS011;7939;50.814;6.368;2023-08-24T01:25:51;4.18;;;2.47;;
15677;SDS011;7939;50.814;6.368;2023-08-24T01:28:21;3.03;;;2.40;;
15677;SDS011;7939;50.814;6.368;2023-08-24T01:30:48;5.80;;;3.47;;
15677;SDS011;7939;50.814;6.368;2023-08-24T01:33:15;3.30;;;3.00;;
15677;SDS011;7939;50.814;6.368;2023-08-24T01:35:42;4.00;;;3.38;;
15677;SDS011;7939;50.814;6.368;2023-08-24T01:38:08;6.38;;;3.50;;
15677;SDS011;7939;50.814;6.368;2023-08-24T01:40:40;3.35;;;2.90;;
15677;SDS011;7939;50.814;6.368;2023-08-24T01:43:14;6.13;;;3.35;;
15677;SDS011;7939;50.814;6.368;2023-08-24T01:45:45;5.00;;;4.10;;
15677;SDS011;7939;50.814;6.368;2023-08-24T01:48:13;3.45;;;3.10;;
15677;SDS011;7939;50.814;6.368;2023-08-24T01:50:40;4.50;;;2.90;;
15677;SDS011;7939;50.814;6.368;2023-08-24T01:53:08;3.33;;;2.97;;
15677;SDS011;7939;50.814;6.368;2023-08-24T01:55:35;4.43;;;2.70;;
15677;SDS011;7939;50.814;6.368;2023-08-24T01:58:02;4.15;;;2.80;;
15677;SDS011;7939;50.814;6.368;2023-08-24T02:00:29;4.28;;;2.80;;
15677;SDS011;7939;50.814;6.368;2023-08-24T02:02:57;4.05;;;3.17;;
15677;SDS011;7939;50.814;6.368;2023-08-24T02:05:24;3.85;;;3.05;;
15677;SDS011;7939;50.814;6.368;2023-08-24T02:07:52;5.35;;;2.90;;
15677;SDS011;7939;50.814;6.368;2023-08-24T02:10:20;6.05;;;3.17;;
15677;SDS011;7939;50.814;6.368;2023-08-24T02:12:46;4.70;;;3.58;;
15677;SDS011;7939;50.814;6.368;2023-08-24T02:15:13;5.07;;;2.97;;
15677;SDS011;7939;50.814;6.368;2023-08-24T02:17:39;4.32;;;3.58;;
15677;SDS011;7939;50.814;6.368;2023-08-24T02:20:08;5.85;;;3.88;;
15677;SDS011;7939;50.814;6.368;2023-08-24T02:22:36;5.88;;;3.80;;
15677;SDS011;7939;50.814;6.368;2023-08-24T02:25:03;6.05;;;4.07;;
15677;SDS011;7939;50.814;6.368;2023-08-24T02:27:30;6.95;;;4.20;;
15677;SDS011;7939;50.814;6.368;2023-08-24T02:29:57;4.72;;;3.50;;
15677;SDS011;7939;50.814;6.368;2023-08-24T02:32:24;7.25;;;4.60;;
15677;SDS011;7939;50.814;6.368;2023-08-24T02:34:50;5.50;;;3.65;;
15677;SDS011;7939;50.814;6.368;2023-08-24T02:37:18;7.63;;;3.78;;
15677;SDS011;7939;50.814;6.368;2023-08-24T02:39:45;5.57;;;3.42;;
15677;SDS011;7939;50.814;6.368;2023-08-24T02:42:11;5.93;;;3.40;;
15677;SDS011;7939;50.814;6.368;2023-08-24T02:44:38;3.80;;;3.35;;
15677;SDS011;7939;50.814;6.368;2023-08-24T02:47:05;5.82;;;3.25;;
15677;SDS011;7939;50.814;6.368;2023-08-24T02:49:31;5.07;;;3.13;;
15677;SDS011;7939;50.814;6.368;2023-08-24T02:51:58;4.78;;;3.42;;
15677;SDS011;7939;50.814;6.368;2023-08-24T02:54:26;5.47;;;3.00;;
15677;SDS011;7939;50.814;6.368;2023-08-24T02:56:53;6.22;;;3.10;;
15677;SDS011;7939;50.814;6.368;2023-08-24T02:59:19;6.10;;;3.20;;
15677;SDS011;7939;50.814;6.368;2023-08-24T03:01:46;6.63;;;4.30;;
15677;SDS011;7939;50.814;6.368;2023-08-24T03:04:13;5.20;;;3.85;;
15677;SDS011;7939;50.814;6.368;2023-08-24T03:06:39;3.80;;;3.40;;
15677;SDS011;7939;50.814;6.368;2023-08-24T03:09:06;5.00;;;3.55;;
15677;SDS011;7939;50.814;6.368;2023-08-24T03:11:34;9.05;;;5.00;;
15677;SDS011;7939;50.814;6.368;2023-08-24T03:14:00;5.05;;;4.35;;
15677;SDS011;7939;50.814;6.368;2023-08-24T03:16:27;6.35;;;4.10;;
15677;SDS011;7939;50.814;6.368;2023-08-24T03:18:54;9.10;;;4.35;;
15677;SDS011;7939;50.814;6.368;2023-08-24T03:21:20;9.90;;;4.70;;
15677;SDS011;7939;50.814;6.368;2023-08-24T03:23:47;5.75;;;3.65;;
15677;SDS011;7939;50.814;6.368;2023-08-24T03:26:13;6.57;;;4.38;;
15677;SDS011;7939;50.814;6.368;2023-08-24T03:28:42;5.57;;;3.95;;
15677;SDS011;7939;50.814;6.368;2023-08-24T03:31:08;6.72;;;4.55;;
15677;SDS011;7939;50.814;6.368;2023-08-24T03:33:35;5.53;;;4.15;;
15677;SDS011;7939;50.814;6.368;2023-08-24T03:36:02;6.55;;;3.97;;
15677;SDS011;7939;50.814;6.368;2023-08-24T03:38:29;4.60;;;3.47;;
15677;SDS011;7939;50.814;6.368;2023-08-24T03:40:59;7.03;;;3.33;;
15677;SDS011;7939;50.814;6.368;2023-08-24T03:43:28;6.78;;;3.25;;
15677;SDS011;7939;50.814;6.368;2023-08-24T03:45:56;4.70;;;3.70;;
15677;SDS011;7939;50.814;6.368;2023-08-24T03:48:22;4.90;;;3.38;;
15677;SDS011;7939;50.814;6.368;2023-08-24T03:50:49;5.32;;;3.40;;
15677;SDS011;7939;50.814;6.368;2023-08-24T03:53:16;6.55;;;3.35;;
15677;SDS011;7939;50.814;6.368;2023-08-24T03:55:46;4.72;;;3.40;;
15677;SDS011;7939;50.814;6.368;2023-08-24T03:58:13;3.70;;;3.00;;
15677;SDS011;7939;50.814;6.368;2023-08-24T04:00:40;5.10;;;2.95;;
15677;SDS011;7939;50.814;6.368;2023-08-24T04:03:08;3.97;;;3.42;;
15677;SDS011;7939;50.814;6.368;2023-08-24T04:05:35;6.10;;;3.55;;
15677;SDS011;7939;50.814;6.368;2023-08-24T04:08:01;7.22;;;3.40;;
15677;SDS011;7939;50.814;6.368;2023-08-24T04:10:29;3.45;;;2.75;;
15677;SDS011;7939;50.814;6.368;2023-08-24T04:12:56;4.90;;;3.08;;
15677;SDS011;7939;50.814;6.368;2023-08-24T04:15:23;4.30;;;2.92;;
15677;SDS011;7939;50.814;6.368;2023-08-24T04:17:50;5.00;;;3.17;;
15677;SDS011;7939;50.814;6.368;2023-08-24T04:20:18;5.95;;;3.20;;
15677;SDS011;7939;50.814;6.368;2023-08-24T04:22:46;5.60;;;3.20;;
15677;SDS011;7939;50.814;6.368;2023-08-24T04:25:12;4.68;;;3.10;;
15677;SDS011;7939;50.814;6.368;2023-08-24T04:27:39;4.65;;;2.83;;
15677;SDS011;7939;50.814;6.368;2023-08-24T04:30:07;4.45;;;3.47;;
15677;SDS011;7939;50.814;6.368;2023-08-24T04:32:37;3.28;;;2.90;;
15677;SDS011;7939;50.814;6.368;2023-08-24T04:35:04;3.85;;;2.70;;
15677;SDS011;7939;50.814;6.368;2023-08-24T04:37:32;6.03;;;2.90;;
15677;SDS011;7939;50.814;6.368;2023-08-24T04:39:59;4.13;;;2.65;;
15677;SDS011;7939;50.814;6.368;2023-08-24T04:42:25;3.35;;;2.55;;
15677;SDS011;7939;50.814;6.368;2023-08-24T04:44:52;5.00;;;2.90;;
15677;SDS011;7939;50.814;6.368;2023-08-24T04:47:18;6.32;;;2.92;;
15677;SDS011;7939;50.814;6.368;2023-08-24T04:49:45;3.55;;;2.60;;
15677;SDS011;7939;50.814;6.368;2023-08-24T04:52:12;5.32;;;2.88;;
15677;SDS011;7939;50.814;6.368;2023-08-24T04:54:40;5.32;;;3.30;;
15677;SDS011;7939;50.814;6.368;2023-08-24T04:57:08;5.43;;;3.00;;
15677;SDS011;7939;50.814;6.368;2023-08-24T04:59:34;3.60;;;2.53;;
15677;SDS011;7939;50.814;6.368;2023-08-24T05:02:01;3.33;;;2.28;;
15677;SDS011;7939;50.814;6.368;2023-08-24T05:04:27;3.67;;;2.92;;
15677;SDS011;7939;50.814;6.368;2023-08-24T05:06:54;5.32;;;2.80;;
15677;SDS011;7939;50.814;6.368;2023-08-24T05:09:20;4.47;;;3.00;;
15677;SDS011;7939;50.814;6.368;2023-08-24T05:11:49;3.38;;;2.72;;
15677;SDS011;7939;50.814;6.368;2023-08-24T05:14:15;5.03;;;3.10;;
15677;SDS011;7939;50.814;6.368;2023-08-24T05:16:42;3.97;;;2.85;;
15677;SDS011;7939;50.814;6.368;2023-08-24T05:19:09;7.25;;;2.85;;
15677;SDS011;7939;50.814;6.368;2023-08-24T05:21:35;3.78;;;2.67;;
15677;SDS011;7939;50.814;6.368;2023-08-24T05:24:02;4.55;;;3.20;;
15677;SDS011;7939;50.814;6.368;2023-08-24T05:26:30;4.85;;;3.38;;
15677;SDS011;7939;50.814;6.368;2023-08-24T05:28:58;4.40;;;3.17;;
15677;SDS011;7939;50.814;6.368;2023-08-24T05:31:24;4.63;;;2.75;;
15677;SDS011;7939;50.814;6.368;2023-08-24T05:33:51;5.30;;;3.80;;
15677;SDS011;7939;50.814;6.368;2023-08-24T05:36:18;7.28;;;4.22;;
15677;SDS011;7939;50.814;6.368;2023-08-24T05:38:44;6.75;;;3.80;;
15677;SDS011;7939;50.814;6.368;2023-08-24T05:41:12;8.48;;;4.20;;
15677;SDS011;7939;50.814;6.368;2023-08-24T05:43:39;6.90;;;3.28;;
15677;SDS011;7939;50.814;6.368;2023-08-24T05:46:07;4.10;;;3.55;;
15677;SDS011;7939;50.814;6.368;2023-08-24T05:48:33;6.30;;;3.92;;
15677;SDS011;7939;50.814;6.368;2023-08-24T05:51:00;6.63;;;4.18;;
15677;SDS011;7939;50.814;6.368;2023-08-24T05:53:27;6.18;;;4.18;;
15677;SDS011;7939;50.814;6.368;2023-08-24T05:55:56;4.38;;;3.80;;
15677;SDS011;7939;50.814;6.368;2023-08-24T05:58:23;3.50;;;2.92;;
15677;SDS011;7939;50.814;6.368;2023-08-24T06:00:55;3.72;;;2.85;;
15677;SDS011;7939;50.814;6.368;2023-08-24T06:03:24;4.05;;;2.85;;
15677;SDS011;7939;50.814;6.368;2023-08-24T06:05:50;4.15;;;3.15;;
15677;SDS011;7939;50.814;6.368;2023-08-24T06:08:17;4.35;;;3.55;;
15677;SDS011;7939;50.814;6.368;2023-08-24T06:10:44;5.18;;;3.50;;
15677;SDS011;7939;50.814;6.368;2023-08-24T06:13:10;4.78;;;3.08;;
15677;SDS011;7939;50.814;6.368;2023-08-24T06:15:37;5.15;;;3.65;;
15677;SDS011;7939;50.814;6.368;2023-08-24T06:18:04;5.25;;;3.65;;
15677;SDS011;7939;50.814;6.368;2023-08-24T06:20:31;7.00;;;4.25;;
15677;SDS011;7939;50.814;6.368;2023-08-24T06:22:58;7.32;;;4.57;;
15677;SDS011;7939;50.814;6.368;2023-08-24T06:25:25;8.05;;;4.95;;
15677;SDS011;7939;50.814;6.368;2023-08-24T06:27:51;7.40;;;4.60;;
15677;SDS011;7939;50.814;6.368;2023-08-24T06:30:18;9.73;;;5.03;;
15677;SDS011;7939;50.814;6.368;2023-08-24T06:32:45;4.40;;;3.60;;
15677;SDS011;7939;50.814;6.368;2023-08-24T06:35:11;4.35;;;3.70;;
15677;SDS011;7939;50.814;6.368;2023-08-24T06:37:41;5.32;;;3.92;;
15677;SDS011;7939;50.814;6.368;2023-08-24T06:40:09;5.88;;;3.88;;
15677;SDS011;7939;50.814;6.368;2023-08-24T06:42:36;7.68;;;4.50;;
15677;SDS011;7939;50.814;6.368;2023-08-24T06:45:03;6.60;;;3.92;;
15677;SDS011;7939;50.814;6.368;2023-08-24T06:47:30;6.70;;;4.22;;
15677;SDS011;7939;50.814;6.368;2023-08-24T06:49:57;4.60;;;4.07;;
15677;SDS011;7939;50.814;6.368;2023-08-24T06:52:24;6.15;;;3.80;;
15677;SDS011;7939;50.814;6.368;2023-08-24T06:54:52;5.93;;;3.65;;
15677;SDS011;7939;50.814;6.368;2023-08-24T06:57:21;6.00;;;3.65;;
15677;SDS011;7939;50.814;6.368;2023-08-24T06:59:48;4.00;;;3.50;;
15677;SDS011;7939;50.814;6.368;2023-08-24T07:02:14;3.42;;;2.95;;
15677;SDS011;7939;50.814;6.368;2023-08-24T07:04:43;3.30;;;3.00;;
15677;SDS011;7939;50.814;6.368;2023-08-24T07:07:10;4.32;;;3.17;;
15677;SDS011;7939;50.814;6.368;2023-08-24T07:09:36;5.32;;;3.10;;
15677;SDS011;7939;50.814;6.368;2023-08-24T07:12:05;4.60;;;3.30;;
15677;SDS011;7939;50.814;6.368;2023-08-24T07:14:35;3.80;;;3.05;;
15677;SDS011;7939;50.814;6.368;2023-08-24T07:17:02;3.88;;;3.05;;
15677;SDS011;7939;50.814;6.368;2023-08-24T07:19:28;4.57;;;3.30;;
15677;SDS011;7939;50.814;6.368;2023-08-24T07:21:55;5.90;;;3.00;;
15677;SDS011;7939;50.814;6.368;2023-08-24T07:24:22;4.20;;;3.10;;
15677;SDS011;7939;50.814;6.368;2023-08-24T07:26:51;4.10;;;2.60;;
15677;SDS011;7939;50.814;6.368;2023-08-24T07:29:19;3.10;;;2.45;;
15677;SDS011;7939;50.814;6.368;2023-08-24T07:31:46;4.50;;;2.85;;
15677;SDS011;7939;50.814;6.368;2023-08-24T07:34:13;3.67;;;3.03;;
15677;SDS011;7939;50.814;6.368;2023-08-24T07:36:40;3.50;;;2.65;;
15677;SDS011;7939;50.814;6.368;2023-08-24T07:39:07;4.32;;;2.90;;
15677;SDS011;7939;50.814;6.368;2023-08-24T07:41:34;4.47;;;2.70;;
15677;SDS011;7939;50.814;6.368;2023-08-24T07:44:01;3.55;;;2.60;;
15677;SDS011;7939;50.814;6.368;2023-08-24T07:46:29;3.67;;;2.75;;
15677;SDS011;7939;50.814;6.368;2023-08-24T07:48:55;4.07;;;2.40;;
15677;SDS011;7939;50.814;6.368;2023-08-24T07:51:22;2.80;;;2.20;;
15677;SDS011;7939;50.814;6.368;2023-08-24T07:53:48;4.55;;;2.15;;
15677;SDS011;7939;50.814;6.368;2023-08-24T07:56:17;4.68;;;2.90;;
15677;SDS011;7939;50.814;6.368;2023-08-24T07:58:44;3.65;;;2.70;;
15677;SDS011;7939;50.814;6.368;2023-08-24T08:01:11;4.93;;;3.15;;
15677;SDS011;7939;50.814;6.368;2023-08-24T08:03:39;4.50;;;2.63;;
15677;SDS011;7939;50.814;6.368;2023-08-24T08:06:06;3.05;;;2.53;;
15677;SDS011;7939;50.814;6.368;2023-08-24T08:08:32;4.03;;;3.25;;
15677;SDS011;7939;50.814;6.368;2023-08-24T08:11:00;3.10;;;2.50;;
15677;SDS011;7939;50.814;6.368;2023-08-24T08:13:28;5.22;;;2.97;;
15677;SDS011;7939;50.814;6.368;2023-08-24T08:16:00;5.10;;;3.08;;
15677;SDS011;7939;50.814;6.368;2023-08-24T08:18:28;4.13;;;2.40;;
15677;SDS011;7939;50.814;6.368;2023-08-24T08:20:56;3.05;;;2.30;;
15677;SDS011;7939;50.814;6.368;2023-08-24T08:23:23;4.60;;;2.28;;
15677;SDS011;7939;50.814;6.368;2023-08-24T08:25:49;4.13;;;2.30;;
15677;SDS011;7939;50.814;6.368;2023-08-24T08:28:16;3.35;;;2.58;;
15677;SDS011;7939;50.814;6.368;2023-08-24T08:30:43;3.67;;;2.47;;
15677;SDS011;7939;50.814;6.368;2023-08-24T08:33:10;5.80;;;2.50;;
15677;SDS011;7939;50.814;6.368;2023-08-24T08:35:37;3.10;;;2.35;;
15677;SDS011;7939;50.814;6.368;2023-08-24T08:38:06;4.47;;;2.67;;
15677;SDS011;7939;50.814;6.368;2023-08-24T08:40:33;5.10;;;2.97;;
15677;SDS011;7939;50.814;6.368;2023-08-24T08:43:03;3.65;;;2.75;;
15677;SDS011;7939;50.814;6.368;2023-08-24T08:45:31;4.47;;;2.20;;
15677;SDS011;7939;50.814;6.368;2023-08-24T08:47:59;2.47;;;2.10;;
15677;SDS011;7939;50.814;6.368;2023-08-24T08:50:26;4.28;;;2.55;;
15677;SDS011;7939;50.814;6.368;2023-08-24T08:52:53;3.50;;;2.53;;
15677;SDS011;7939;50.814;6.368;2023-08-24T08:55:21;4.70;;;2.47;;
15677;SDS011;7939;50.814;6.368;2023-08-24T08:57:48;5.38;;;2.50;;
15677;SDS011;7939;50.814;6.368;2023-08-24T09:00:18;3.25;;;2.40;;
15677;SDS011;7939;50.814;6.368;2023-08-24T09:02:46;6.65;;;2.38;;
15677;SDS011;7939;50.814;6.368;2023-08-24T09:05:16;3.45;;;2.25;;
15677;SDS011;7939;50.814;6.368;2023-08-24T09:07:42;4.90;;;2.72;;
15677;SDS011;7939;50.814;6.368;2023-08-24T09:10:10;3.97;;;2.30;;
15677;SDS011;7939;50.814;6.368;2023-08-24T09:12:38;3.33;;;2.38;;
15677;SDS011;7939;50.814;6.368;2023-08-24T09:15:05;4.03;;;2.50;;
15677;SDS011;7939;50.814;6.368;2023-08-24T09:17:32;3.60;;;2.10;;
15677;SDS011;7939;50.814;6.368;2023-08-24T09:20:00;2.90;;;2.13;;
15677;SDS011;7939;50.814;6.368;2023-08-24T09:22:34;4.47;;;2.47;;
15677;SDS011;7939;50.814;6.368;2023-08-24T09:25:01;4.18;;;2.05;;
15677;SDS011;7939;50.814;6.368;2023-08-24T09:27:29;4.22;;;2.17;;
15677;SDS011;7939;50.814;6.368;2023-08-24T09:29:57;2.70;;;1.98;;
15677;SDS011;7939;50.814;6.368;2023-08-24T09:32:23;4.22;;;2.25;;
15677;SDS011;7939;50.814;6.368;2023-08-24T09:34:53;2.90;;;2.10;;
15677;SDS011;7939;50.814;6.368;2023-08-24T09:37:20;3.95;;;2.25;;
15677;SDS011;7939;50.814;6.368;2023-08-24T09:39:47;4.35;;;2.67;;
15677;SDS011;7939;50.814;6.368;2023-08-24T09:42:14;6.20;;;2.03;;
15677;SDS011;7939;50.814;6.368;2023-08-24T09:44:43;3.92;;;2.40;;
15677;SDS011;7939;50.814;6.368;2023-08-24T09:47:11;4.38;;;2.25;;
15677;SDS011;7939;50.814;6.368;2023-08-24T09:49:38;2.83;;;2.20;;
15677;SDS011;7939;50.814;6.368;2023-08-24T09:52:06;3.13;;;1.98;;
15677;SDS011;7939;50.814;6.368;2023-08-24T09:54:36;6.03;;;2.67;;
15677;SDS011;7939;50.814;6.368;2023-08-24T09:57:04;4.32;;;2.28;;
15677;SDS011;7939;50.814;6.368;2023-08-24T09:59:33;5.85;;;2.70;;
15677;SDS011;7939;50.814;6.368;2023-08-24T10:02:01;5.07;;;2.22;;
15677;SDS011;7939;50.814;6.368;2023-08-24T10:04:30;4.25;;;2.38;;
15677;SDS011;7939;50.814;6.368;2023-08-24T10:07:02;4.40;;;2.55;;
15677;SDS011;7939;50.814;6.368;2023-08-24T10:09:35;3.97;;;2.33;;
15677;SDS011;7939;50.814;6.368;2023-08-24T10:12:04;4.05;;;2.40;;
15677;SDS011;7939;50.814;6.368;2023-08-24T10:14:35;4.60;;;2.63;;
15677;SDS011;7939;50.814;6.368;2023-08-24T10:17:13;3.72;;;2.00;;
15677;SDS011;7939;50.814;6.368;2023-08-24T10:19:41;3.42;;;2.17;;
15677;SDS011;7939;50.814;6.368;2023-08-24T10:22:09;3.70;;;2.40;;
15677;SDS011;7939;50.814;6.368;2023-08-24T10:24:37;4.72;;;2.55;;
15677;SDS011;7939;50.814;6.368;2023-08-24T10:27:04;3.47;;;2.30;;
15677;SDS011;7939;50.814;6.368;2023-08-24T10:29:35;4.72;;;2.15;;
15677;SDS011;7939;50.814;6.368;2023-08-24T10:32:02;3.55;;;2.58;;
15677;SDS011;7939;50.814;6.368;2023-08-24T10:34:29;6.45;;;2.28;;
15677;SDS011;7939;50.814;6.368;2023-08-24T10:36:57;5.75;;;2.45;;
15677;SDS011;7939;50.814;6.368;2023-08-24T10:39:33;4.50;;;2.38;;
15677;SDS011;7939;50.814;6.368;2023-08-24T10:42:03;4.90;;;2.50;;
15677;SDS011;7939;50.814;6.368;2023-08-24T10:44:35;4.90;;;2.15;;
15677;SDS011;7939;50.814;6.368;2023-08-24T10:47:06;6.20;;;2.25;;
15677;SDS011;7939;50.814;6.368;2023-08-24T10:49:40;5.65;;;2.70;;
15677;SDS011;7939;50.814;6.368;2023-08-24T10:52:18;5.35;;;2.58;;
15677;SDS011;7939;50.814;6.368;2023-08-24T10:54:48;3.88;;;2.60;;
15677;SDS011;7939;50.814;6.368;2023-08-24T10:57:19;7.80;;;2.90;;
15677;SDS011;7939;50.814;6.368;2023-08-24T10:59:57;5.13;;;2.35;;
15677;SDS011;7939;50.814;6.368;2023-08-24T11:02:25;7.15;;;2.20;;
15677;SDS011;7939;50.814;6.368;2023-08-24T11:05:04;7.57;;;2.22;;
15677;SDS011;7939;50.814;6.368;2023-08-24T11:07:33;6.68;;;2.70;;
15677;SDS011;7939;50.814;6.368;2023-08-24T11:10:10;4.00;;;2.15;;
15677;SDS011;7939;50.814;6.368;2023-08-24T11:15:37;5.28;;;2.58;;
15677;SDS011;7939;50.814;6.368;2023-08-24T11:18:14;5.45;;;2.38;;
15677;SDS011;7939;50.814;6.368;2023-08-24T11:20:49;5.30;;;2.38;;
15677;SDS011;7939;50.814;6.368;2023-08-24T11:23:19;3.53;;;2.35;;
15677;SDS011;7939;50.814;6.368;2023-08-24T11:25:47;2.90;;;2.15;;
15677;SDS011;7939;50.814;6.368;2023-08-24T11:28:17;4.65;;;2.13;;
15677;SDS011;7939;50.814;6.368;2023-08-24T11:30:45;3.25;;;2.08;;
15677;SDS011;7939;50.814;6.368;2023-08-24T11:33:12;8.52;;;2.97;;
15677;SDS011;7939;50.814;6.368;2023-08-24T11:35:41;7.13;;;3.45;;
15677;SDS011;7939;50.814;6.368;2023-08-24T11:38:09;9.77;;;3.70;;
15677;SDS011;7939;50.814;6.368;2023-08-24T11:40:37;6.43;;;3.13;;
15677;SDS011;7939;50.814;6.368;2023-08-24T11:43:04;4.03;;;3.25;;
15677;SDS011;7939;50.814;6.368;2023-08-24T11:45:31;6.75;;;3.75;;
15677;SDS011;7939;50.814;6.368;2023-08-24T11:47:58;6.07;;;3.40;;
15677;SDS011;7939;50.814;6.368;2023-08-24T11:50:26;7.10;;;3.28;;
15677;SDS011;7939;50.814;6.368;2023-08-24T11:52:53;5.15;;;3.28;;
15677;SDS011;7939;50.814;6.368;2023-08-24T11:55:20;8.95;;;3.58;;
15677;SDS011;7939;50.814;6.368;2023-08-24T11:57:49;8.70;;;3.72;;
15677;SDS011;7939;50.814;6.368;2023-08-24T12:00:15;8.45;;;3.30;;
15677;SDS011;7939;50.814;6.368;2023-08-24T12:02:43;7.18;;;2.80;;
15677;SDS011;7939;50.814;6.368;2023-08-24T12:05:19;6.45;;;3.40;;
15677;SDS011;7939;50.814;6.368;2023-08-24T12:07:47;7.07;;;3.67;;
15677;SDS011;7939;50.814;6.368;2023-08-24T12:10:14;11.27;;;4.47;;
15677;SDS011;7939;50.814;6.368;2023-08-24T12:12:40;4.70;;;3.30;;
15677;SDS011;7939;50.814;6.368;2023-08-24T12:15:14;5.85;;;3.47;;
15677;SDS011;7939;50.814;6.368;2023-08-24T12:17:44;4.05;;;3.22;;
15677;SDS011;7939;50.814;6.368;2023-08-24T12:20:18;6.28;;;3.33;;
15677;SDS011;7939;50.814;6.368;2023-08-24T12:22:50;5.28;;;2.63;;
15677;SDS011;7939;50.814;6.368;2023-08-24T12:25:18;5.68;;;3.10;;
15677;SDS011;7939;50.814;6.368;2023-08-24T12:27:47;6.75;;;3.00;;
15677;SDS011;7939;50.814;6.368;2023-08-24T12:30:15;5.10;;;2.35;;
15677;SDS011;7939;50.814;6.368;2023-08-24T12:32:43;5.63;;;2.70;;
15677;SDS011;7939;50.814;6.368;2023-08-24T12:35:10;6.03;;;2.85;;
15677;SDS011;7939;50.814;6.368;2023-08-24T12:37:37;6.25;;;2.95;;
15677;SDS011;7939;50.814;6.368;2023-08-24T12:40:04;4.60;;;2.65;;
15677;SDS011;7939;50.814;6.368;2023-08-24T12:42:32;6.63;;;2.55;;
15677;SDS011;7939;50.814;6.368;2023-08-24T12:44:59;3.85;;;2.60;;
15677;SDS011;7939;50.814;6.368;2023-08-24T12:47:27;3.97;;;2.60;;
15677;SDS011;7939;50.814;6.368;2023-08-24T12:49:53;3.97;;;2.22;;
15677;SDS011;7939;50.814;6.368;2023-08-24T12:52:21;3.67;;;2.33;;
15677;SDS011;7939;50.814;6.368;2023-08-24T12:54:48;4.63;;;2.63;;
15677;SDS011;7939;50.814;6.368;2023-08-24T12:57:15;6.10;;;2.47;;
15677;SDS011;7939;50.814;6.368;2023-08-24T12:59:41;5.57;;;2.35;;
15677;SDS011;7939;50.814;6.368;2023-08-24T13:02:08;4.60;;;2.15;;
15677;SDS011;7939;50.814;6.368;2023-08-24T13:04:36;4.03;;;2.10;;
15677;SDS011;7939;50.814;6.368;2023-08-24T13:07:02;5.40;;;2.72;;
15677;SDS011;7939;50.814;6.368;2023-08-24T13:09:29;2.58;;;2.17;;
15677;SDS011;7939;50.814;6.368;2023-08-24T13:11:56;6.50;;;2.40;;
15677;SDS011;7939;50.814;6.368;2023-08-24T13:14:23;5.40;;;2.30;;
15677;SDS011;7939;50.814;6.368;2023-08-24T13:16:49;3.63;;;2.00;;
15677;SDS011;7939;50.814;6.368;2023-08-24T13:19:16;3.75;;;1.90;;
15677;SDS011;7939;50.814;6.368;2023-08-24T13:21:44;4.35;;;2.10;;
15677;SDS011;7939;50.814;6.368;2023-08-24T13:24:10;2.92;;;2.20;;
15677;SDS011;7939;50.814;6.368;2023-08-24T13:26:37;3.33;;;2.50;;
15677;SDS011;7939;50.814;6.368;2023-08-24T13:29:03;4.57;;;2.15;;
15677;SDS011;7939;50.814;6.368;2023-08-24T13:31:30;5.20;;;2.05;;
15677;SDS011;7939;50.814;6.368;2023-08-24T13:33:57;3.30;;;2.67;;
15677;SDS011;7939;50.814;6.368;2023-08-24T13:36:23;6.68;;;2.10;;
15677;SDS011;7939;50.814;6.368;2023-08-24T13:38:51;7.35;;;1.80;;
15677;SDS011;7939;50.814;6.368;2023-08-24T13:41:18;4.75;;;2.30;;
15677;SDS011;7939;50.814;6.368;2023-08-24T13:43:44;3.97;;;2.05;;
15677;SDS011;7939;50.814;6.368;2023-08-24T13:46:11;8.20;;;2.75;;
15677;SDS011;7939;50.814;6.368;2023-08-24T13:48:37;6.60;;;2.17;;
15677;SDS011;7939;50.814;6.368;2023-08-24T13:51:04;5.80;;;2.85;;
15677;SDS011;7939;50.814;6.368;2023-08-24T13:53:31;6.60;;;2.42;;
15677;SDS011;7939;50.814;6.368;2023-08-24T13:55:59;3.55;;;2.28;;
15677;SDS011;7939;50.814;6.368;2023-08-24T13:58:25;7.43;;;2.03;;
15677;SDS011;7939;50.814;6.368;2023-08-24T14:00:55;4.15;;;2.47;;
15677;SDS011;7939;50.814;6.368;2023-08-24T14:03:21;5.28;;;2.13;;
15677;SDS011;7939;50.814;6.368;2023-08-24T14:05:48;6.35;;;2.83;;
15677;SDS011;7939;50.814;6.368;2023-08-24T14:08:17;4.45;;;2.40;;
15677;SDS011;7939;50.814;6.368;2023-08-24T14:10:44;5.55;;;2.75;;
15677;SDS011;7939;50.814;6.368;2023-08-24T14:13:15;6.32;;;2.55;;
15677;SDS011;7939;50.814;6.368;2023-08-24T14:15:41;5.88;;;2.10;;
15677;SDS011;7939;50.814;6.368;2023-08-24T14:18:11;8.50;;;2.95;;
15677;SDS011;7939;50.814;6.368;2023-08-24T14:20:38;4.35;;;2.38;;
15677;SDS011;7939;50.814;6.368;2023-08-24T14:23:04;5.60;;;2.28;;
15677;SDS011;7939;50.814;6.368;2023-08-24T14:25:31;4.80;;;2.47;;
15677;SDS011;7939;50.814;6.368;2023-08-24T14:27:58;3.13;;;1.95;;
15677;SDS011;7939;50.814;6.368;2023-08-24T14:30:26;5.95;;;2.50;;
15677;SDS011;7939;50.814;6.368;2023-08-24T14:32:52;7.47;;;1.88;;
15677;SDS011;7939;50.814;6.368;2023-08-24T14:35:19;5.97;;;1.70;;
15677;SDS011;7939;50.814;6.368;2023-08-24T14:37:45;5.55;;;1.70;;
15677;SDS011;7939;50.814;6.368;2023-08-24T14:40:12;4.07;;;2.00;;
15677;SDS011;7939;50.814;6.368;2023-08-24T14:42:41;5.22;;;1.70;;
15677;SDS011;7939;50.814;6.368;2023-08-24T14:45:08;4.43;;;1.50;;
15677;SDS011;7939;50.814;6.368;2023-08-24T14:47:36;1.90;;;1.20;;
15677;SDS011;7939;50.814;6.368;2023-08-24T14:50:04;4.47;;;1.20;;
15677;SDS011;7939;50.814;6.368;2023-08-24T14:52:31;2.10;;;1.38;;
15677;SDS011;7939;50.814;6.368;2023-08-24T14:54:58;1.45;;;1.02;;
15677;SDS011;7939;50.814;6.368;2023-08-24T14:57:25;2.33;;;1.00;;
15677;SDS011;7939;50.814;6.368;2023-08-24T14:59:51;3.08;;;1.20;;
15677;SDS011;7939;50.814;6.368;2023-08-24T15:02:19;2.65;;;1.13;;
15677;SDS011;7939;50.814;6.368;2023-08-24T15:04:47;5.25;;;1.30;;
15677;SDS011;7939;50.814;6.368;2023-08-24T15:07:13;1.70;;;1.20;;